createdAt,value
2019-03-30T00:01:39.310Z,60.40
2019-03-30T00:04:23.769Z,59.53
2019-03-30T00:07:08.078Z,57.00
2019-03-30T00:09:52.512Z,63.83
2019-03-30T00:12:38.185Z,58.73
2019-03-30T00:15:22.162Z,61.50
2019-03-30T00:18:07.591Z,58.17
2019-03-30T00:20:52.280Z,61.43
2019-03-30T00:23:36.661Z,60.77
2019-03-30T00:26:20.961Z,55.52
2019-03-30T00:29:06.455Z,61.73
2019-03-30T00:31:52.301Z,62.67
2019-03-30T00:34:36.914Z,61.53
2019-03-30T00:37:22.889Z,61.30
2019-03-30T00:40:06.868Z,65.17
2019-03-30T00:42:52.728Z,63.70
2019-03-30T00:45:37.034Z,67.83
2019-03-30T00:48:22.400Z,61.30
2019-03-30T00:51:07.305Z,64.92
2019-03-30T00:53:41.539Z,62.08
2019-03-30T00:56:31.993Z,67.13
2019-03-30T00:59:15.802Z,68.87
2019-03-30T01:02:00.377Z,65.70
2019-03-30T01:04:46.565Z,63.10
2019-03-30T01:07:32.646Z,70.55
2019-03-30T01:10:17.992Z,69.70
2019-03-30T01:13:02.056Z,64.77
2019-03-30T01:15:46.415Z,62.47
2019-03-30T01:18:30.560Z,58.87
2019-03-30T01:21:16.123Z,57.57
2019-03-30T01:24:01.062Z,57.33
2019-03-30T01:26:49.057Z,58.07
2019-03-30T01:29:33.313Z,58.27
2019-03-30T01:32:17.750Z,54.17
2019-03-30T01:35:02.317Z,60.43
2019-03-30T01:37:35.568Z,47.70
2019-03-30T01:40:19.854Z,46.23
2019-03-30T01:43:03.834Z,45.50
2019-03-30T01:45:50.005Z,42.95
2019-03-30T01:48:34.426Z,40.67
2019-03-30T01:51:19.080Z,33.67
2019-03-30T01:54:03.672Z,26.77
2019-03-30T01:56:47.820Z,27.27
2019-03-30T01:59:32.384Z,26.80
2019-03-30T02:02:16.309Z,31.10
2019-03-30T02:05:00.730Z,32.97
2019-03-30T02:07:46.350Z,32.30
2019-03-30T02:13:43.750Z,25.80
2019-03-30T02:16:27.586Z,29.60
2019-03-30T02:19:12.255Z,30.47
2019-03-30T02:21:55.409Z,31.90
2019-03-30T02:24:39.535Z,31.33
2019-03-30T02:27:23.527Z,34.67
2019-03-30T02:30:08.851Z,32.07
2019-03-30T02:32:53.499Z,32.10
2019-03-30T02:35:38.246Z,35.92
2019-03-30T02:38:22.462Z,37.53
2019-03-30T02:41:06.904Z,41.97
2019-03-30T02:43:41.241Z,44.73
2019-03-30T02:46:26.604Z,47.70
2019-03-30T02:49:10.968Z,51.23
2019-03-30T02:51:56.318Z,52.67
2019-03-30T02:54:40.898Z,52.67
2019-03-30T02:57:15.185Z,50.90
2019-03-30T02:59:59.609Z,55.33
2019-03-30T03:02:44.268Z,52.63
2019-03-30T03:05:29.577Z,54.50
2019-03-30T03:08:13.815Z,53.60
2019-03-30T03:10:57.250Z,55.07
2019-03-30T03:13:42.198Z,57.10
2019-03-30T03:16:27.697Z,60.17
2019-03-30T03:19:11.907Z,56.07
2019-03-30T03:21:56.553Z,59.73
2019-03-30T03:24:40.809Z,62.33
2019-03-30T03:27:24.675Z,64.90
2019-03-30T03:30:09.395Z,63.55
2019-03-30T03:32:54.421Z,61.80
2019-03-30T03:35:39.062Z,65.73
2019-03-30T03:38:12.157Z,64.15
2019-03-30T03:40:58.543Z,64.47
2019-03-30T03:43:43.433Z,66.33
2019-03-30T03:46:28.299Z,65.50
2019-03-30T03:49:12.655Z,63.80
2019-03-30T03:51:56.760Z,64.80
2019-03-30T03:54:40.879Z,63.73
2019-03-30T03:57:25.409Z,60.57
2019-03-30T04:00:10.047Z,54.97
2019-03-30T04:02:55.907Z,62.67
2019-03-30T04:05:42.671Z,61.67
2019-03-30T04:08:27.295Z,58.40
2019-03-30T04:11:12.258Z,68.63
2019-03-30T04:13:56.517Z,67.97
2019-03-30T04:16:41.852Z,68.03
2019-03-30T04:19:26.088Z,69.70
2019-03-30T04:22:10.936Z,62.87
2019-03-30T04:24:59.233Z,54.07
2019-03-30T04:27:43.151Z,44.88
2019-03-30T04:30:27.478Z,41.77
2019-03-30T04:33:11.520Z,42.27
2019-03-30T04:35:56.686Z,44.20
2019-03-30T04:38:41.496Z,40.40
2019-03-30T04:41:26.208Z,45.43
2019-03-30T04:44:10.365Z,47.20
2019-03-30T04:46:55.818Z,49.47
2019-03-30T04:49:40.239Z,48.10
2019-03-30T04:52:26.428Z,53.87
2019-03-30T04:55:11.048Z,53.03
2019-03-30T04:57:57.735Z,54.50
2019-03-30T05:00:42.979Z,55.13
2019-03-30T05:03:28.609Z,55.83
2019-03-30T05:06:12.992Z,56.57
2019-03-30T05:08:57.457Z,50.03
2019-03-30T05:11:41.612Z,49.47
2019-03-30T05:14:26.363Z,48.20
2019-03-30T05:17:11.208Z,48.30
2019-03-30T05:19:55.992Z,46.80
2019-03-30T05:22:41.489Z,51.23
2019-03-30T05:25:26.161Z,56.43
2019-03-30T05:28:11.476Z,58.73
2019-03-30T05:30:56.036Z,64.07
2019-03-30T05:33:29.485Z,66.72
2019-03-30T05:36:14.004Z,68.93
2019-03-30T05:38:58.234Z,63.43
2019-03-30T05:41:42.687Z,61.00
2019-03-30T05:44:27.580Z,60.43
2019-03-30T05:47:12.596Z,68.47
2019-03-30T05:49:57.810Z,62.80
2019-03-30T05:52:42.853Z,60.03
2019-03-30T05:55:27.510Z,63.07
2019-03-30T05:58:12.200Z,59.97
2019-03-30T06:00:57.613Z,59.03
2019-03-30T06:03:42.538Z,55.33
2019-03-30T06:06:27.698Z,56.85
2019-03-30T06:09:13.453Z,61.77
2019-03-30T06:11:58.026Z,63.85
2019-03-30T06:14:42.158Z,63.33
2019-03-30T06:17:28.816Z,64.67
2019-03-30T06:20:13.675Z,61.20
2019-03-30T06:22:58.849Z,69.27
2019-03-30T06:25:43.632Z,58.08
2019-03-30T06:28:27.772Z,59.10
2019-03-30T06:31:12.308Z,57.70
2019-03-30T06:33:56.722Z,59.23
2019-03-30T06:36:41.477Z,57.20
2019-03-30T06:39:26.635Z,55.00
2019-03-30T06:42:11.583Z,55.30
2019-03-30T06:44:55.563Z,55.53
2019-03-30T06:47:28.695Z,52.93
2019-03-30T06:50:12.756Z,53.07
2019-03-30T06:52:59.100Z,51.50
2019-03-30T06:55:43.931Z,56.53
2019-03-30T06:58:30.752Z,49.53
2019-03-30T07:01:14.398Z,52.27
2019-03-30T07:03:58.541Z,45.60
2019-03-30T07:06:43.112Z,51.18
2019-03-30T07:09:27.973Z,45.37
2019-03-30T07:12:12.152Z,46.95
2019-03-30T07:14:56.771Z,46.20
2019-03-30T07:17:46.294Z,47.03
2019-03-30T07:20:31.061Z,43.17
2019-03-30T07:23:16.860Z,46.20
2019-03-30T07:26:01.561Z,44.17
2019-03-30T07:28:47.317Z,45.13
2019-03-30T07:31:21.485Z,45.03
2019-03-30T07:34:05.995Z,42.63
2019-03-30T07:36:51.675Z,41.23
2019-03-30T07:39:40.445Z,42.27
2019-03-30T07:42:25.211Z,44.37
2019-03-30T07:45:11.953Z,41.35
2019-03-30T07:47:56.643Z,42.13
2019-03-30T07:50:30.112Z,39.60
2019-03-30T07:53:25.757Z,38.63
2019-03-30T07:56:08.318Z,38.70
2019-03-30T07:58:47.512Z,41.70
2019-03-30T08:01:31.997Z,40.12
2019-03-30T08:04:16.169Z,41.43
2019-03-30T08:07:00.642Z,39.00
2019-03-30T08:09:45.167Z,41.02
2019-03-30T08:12:18.358Z,38.25
2019-03-30T08:15:06.855Z,38.20
2019-03-30T08:17:51.511Z,38.95
2019-03-30T08:20:37.805Z,37.63
2019-03-30T08:26:24.780Z,36.90
2019-03-30T08:28:59.955Z,38.33
2019-03-30T08:34:46.529Z,37.37
2019-03-30T08:37:31.137Z,34.97
2019-03-30T08:40:17.178Z,34.90
2019-03-30T08:49:04.876Z,33.83
2019-03-30T08:51:49.785Z,36.60
2019-03-30T08:54:33.783Z,34.57
2019-03-30T08:57:18.050Z,33.20
2019-03-30T09:00:03.247Z,36.63
2019-03-30T09:05:59.493Z,34.33
2019-03-30T09:08:43.876Z,33.10
2019-03-30T09:14:30.111Z,34.33
2019-03-30T09:17:14.633Z,33.17
2019-03-30T09:20:00.614Z,33.73
2019-03-30T09:22:44.709Z,34.13
2019-03-30T09:25:29.151Z,34.33
2019-03-30T09:28:13.208Z,34.67
2019-03-30T09:30:58.547Z,30.87
2019-03-30T09:39:59.980Z,34.65
2019-03-30T09:42:45.251Z,35.47
2019-03-30T09:45:29.834Z,32.37
2019-03-30T09:51:25.414Z,35.15
2019-03-30T09:54:22.855Z,36.10
2019-03-30T09:56:56.540Z,35.10
2019-03-30T09:59:40.864Z,32.07
2019-03-30T10:02:25.782Z,33.80
2019-03-30T10:05:10.307Z,33.63
2019-03-30T10:07:54.641Z,31.77
2019-03-30T10:10:39.199Z,33.27
2019-03-30T10:13:23.185Z,31.87
2019-03-30T10:16:07.189Z,30.37
2019-03-30T10:18:51.146Z,30.30
2019-03-30T10:21:36.447Z,31.60
2019-03-30T10:24:21.273Z,32.87
2019-03-30T10:27:05.489Z,32.43
2019-03-30T10:33:00.536Z,31.07
2019-03-30T10:35:50.646Z,30.43
2019-03-30T10:38:35.403Z,31.60
2019-03-30T10:41:20.064Z,30.03
2019-03-30T10:47:16.186Z,32.37
2019-03-30T10:50:01.137Z,30.97
2019-03-30T10:52:46.319Z,30.83
2019-03-30T10:55:33.316Z,31.27
2019-03-30T10:58:21.974Z,30.02
2019-03-30T11:01:06.926Z,31.53
2019-03-30T11:07:03.239Z,29.53
2019-03-30T11:13:25.449Z,31.07
2019-03-30T11:16:25.682Z,28.30
2019-03-30T11:19:09.774Z,26.60
2019-03-30T11:21:58.076Z,24.50
2019-03-30T11:30:56.434Z,22.43
2019-03-30T11:40:01.397Z,23.73
2019-03-30T11:46:12.453Z,20.93
2019-03-30T11:52:02.264Z,23.20
2019-03-30T12:07:34.307Z,23.70
2019-03-30T12:10:19.502Z,22.85
2019-03-30T12:13:11.989Z,20.72
2019-03-30T12:18:43.105Z,18.98
2019-03-30T12:21:29.326Z,17.43
2019-03-30T12:27:17.720Z,17.03
2019-03-30T12:30:04.737Z,18.65
2019-03-30T12:32:51.382Z,16.63
2019-03-30T12:35:35.618Z,18.17
2019-03-30T12:38:26.472Z,19.42
2019-03-30T12:41:23.569Z,18.77
2019-03-30T12:44:11.879Z,19.07
2019-03-30T12:46:57.228Z,20.50
2019-03-30T12:56:04.057Z,19.13
2019-03-30T12:58:48.818Z,18.57
2019-03-30T13:04:40.981Z,20.13
2019-03-30T13:07:25.589Z,18.77
2019-03-30T13:10:12.244Z,21.50
2019-03-30T13:13:00.954Z,17.23
2019-03-30T13:15:45.505Z,20.97
2019-03-30T13:18:32.851Z,21.50
2019-03-30T13:21:17.003Z,21.77
2019-03-30T13:27:07.795Z,23.03
2019-03-30T13:30:11.980Z,21.43
2019-03-30T13:36:10.680Z,22.00
2019-03-30T13:38:54.033Z,24.63
2019-03-30T13:41:38.578Z,22.50
2019-03-30T13:44:22.946Z,19.60
2019-03-30T13:47:07.055Z,22.20
2019-03-30T13:49:51.391Z,17.67
2019-03-30T13:52:40.633Z,16.30
2019-03-30T13:55:24.748Z,16.80
2019-03-30T13:58:09.473Z,17.80
2019-03-30T14:00:54.049Z,18.73
2019-03-30T14:03:38.448Z,20.00
2019-03-30T14:06:12.773Z,20.75
2019-03-30T14:08:59.493Z,21.53
2019-03-30T14:11:44.385Z,19.37
2019-03-30T14:14:29.098Z,16.23
2019-03-30T14:17:14.219Z,17.33
2019-03-30T14:20:00.505Z,18.02
2019-03-30T14:22:44.714Z,14.28
2019-03-30T14:25:32.007Z,15.80
2019-03-30T14:28:18.857Z,16.97
2019-03-30T14:31:03.977Z,16.37
2019-03-30T14:33:49.385Z,16.23
2019-03-30T14:36:33.503Z,17.10
2019-03-30T14:39:18.742Z,19.82
2019-03-30T14:42:03.866Z,17.55
2019-03-30T14:44:50.640Z,17.83
2019-03-30T14:47:36.279Z,19.17
2019-03-30T14:50:21.400Z,18.23
2019-03-30T14:52:56.428Z,17.73
2019-03-30T14:55:41.243Z,17.70
2019-03-30T14:58:26.641Z,16.60
2019-03-30T15:01:11.213Z,15.33
2019-03-30T15:03:56.061Z,17.87
2019-03-30T15:06:40.656Z,18.33
2019-03-30T15:09:24.957Z,18.07
2019-03-30T15:12:10.822Z,19.10
2019-03-30T15:14:55.437Z,15.93
2019-03-30T15:17:41.876Z,14.50
2019-03-30T15:20:35.490Z,16.55
2019-03-30T15:23:19.986Z,16.60
2019-03-30T15:26:04.515Z,15.47
2019-03-30T15:28:48.585Z,17.97
2019-03-30T15:31:33.236Z,17.17
2019-03-30T15:34:17.628Z,17.60
2019-03-30T15:37:01.995Z,18.37
2019-03-30T15:39:46.803Z,20.33
2019-03-30T15:42:30.886Z,19.43
2019-03-30T15:45:04.293Z,30.90
2019-03-30T15:47:48.863Z,19.67
2019-03-30T15:50:33.446Z,18.48
2019-03-30T15:53:18.754Z,18.33
2019-03-30T15:55:52.172Z,17.00
2019-03-30T15:58:36.243Z,67.73
2019-03-30T16:01:20.655Z,23.50
2019-03-30T16:04:05.506Z,17.63
2019-03-30T16:06:51.761Z,16.32
2019-03-30T16:09:36.831Z,14.03
2019-03-30T16:12:21.127Z,20.27
2019-03-30T16:15:05.510Z,19.40
2019-03-30T16:17:50.279Z,18.87
2019-03-30T16:20:34.923Z,15.10
2019-03-30T16:23:19.457Z,14.27
2019-03-30T16:26:04.068Z,15.23
2019-03-30T16:28:48.488Z,14.23
2019-03-30T16:31:32.419Z,12.93
2019-03-30T16:34:18.678Z,13.23
2019-03-30T16:37:04.780Z,14.20
2019-03-30T16:39:49.561Z,26.73
2019-03-30T16:42:34.033Z,57.03
2019-03-30T16:45:18.553Z,58.07
2019-03-30T16:48:03.735Z,60.80
2019-03-30T16:50:47.590Z,63.20
2019-03-30T16:53:31.791Z,61.97
2019-03-30T16:56:05.984Z,59.30
2019-03-30T16:58:50.964Z,62.67
2019-03-30T17:01:24.034Z,66.07
2019-03-30T17:04:12.419Z,67.80
2019-03-30T17:06:56.869Z,60.60
2019-03-30T17:09:40.856Z,63.10
2019-03-30T17:12:26.885Z,65.70
2019-03-30T17:15:11.036Z,68.83
2019-03-30T17:17:56.058Z,69.50
2019-03-30T17:20:40.397Z,68.27
2019-03-30T17:23:25.435Z,68.53
2019-03-30T17:26:10.640Z,66.23
2019-03-30T17:28:54.809Z,70.58
2019-03-30T17:31:41.389Z,77.37
2019-03-30T17:34:27.191Z,79.77
2019-03-30T17:37:14.514Z,75.23
2019-03-30T17:39:48.120Z,81.53
2019-03-30T17:42:32.712Z,80.32
2019-03-30T17:45:17.976Z,77.87
2019-03-30T17:48:02.572Z,85.57
2019-03-30T17:50:46.757Z,86.80
2019-03-30T17:53:31.398Z,102.23
2019-03-30T17:56:15.723Z,91.13
2019-03-30T17:59:00.532Z,96.13
2019-03-30T18:01:45.399Z,97.37
2019-03-30T18:04:29.836Z,98.67
2019-03-30T18:07:14.159Z,95.93
2019-03-30T18:09:58.919Z,99.83
2019-03-30T18:12:43.570Z,108.33
2019-03-30T18:15:28.389Z,104.57
2019-03-30T18:18:13.165Z,104.78
2019-03-30T18:20:46.951Z,108.37
2019-03-30T18:23:31.638Z,110.83
2019-03-30T18:26:16.324Z,114.77
2019-03-30T18:29:00.579Z,109.67
2019-03-30T18:31:44.872Z,101.60
2019-03-30T18:34:29.089Z,102.33
2019-03-30T18:37:14.060Z,118.77
2019-03-30T18:39:58.461Z,116.63
2019-03-30T18:42:32.015Z,118.47
2019-03-30T18:48:21.232Z,119.33
2019-03-30T18:51:05.769Z,122.97
2019-03-30T18:53:50.283Z,111.77
2019-03-30T18:56:34.988Z,105.87
2019-03-30T18:59:19.585Z,101.40
2019-03-30T19:02:03.611Z,95.13
2019-03-30T19:04:48.291Z,96.57
2019-03-30T19:07:33.281Z,100.17
2019-03-30T19:10:17.157Z,95.83
2019-03-30T19:13:01.610Z,96.67
2019-03-30T19:15:45.550Z,93.17
2019-03-30T19:18:29.818Z,94.97
2019-03-30T19:21:15.292Z,99.53
2019-03-30T19:23:59.516Z,96.67
2019-03-30T19:26:46.871Z,96.73
2019-03-30T19:29:31.143Z,96.47
2019-03-30T19:32:15.547Z,95.97
2019-03-30T19:35:00.561Z,96.70
2019-03-30T19:37:44.757Z,97.10
2019-03-30T19:40:28.615Z,99.70
2019-03-30T19:43:12.488Z,104.57
2019-03-30T19:45:56.946Z,97.00
2019-03-30T19:48:41.368Z,101.67
2019-03-30T19:51:25.524Z,106.47
2019-03-30T19:54:09.964Z,110.70
2019-03-30T19:56:53.827Z,105.30
2019-03-30T19:59:37.803Z,108.13
2019-03-30T20:02:22.444Z,101.75
2019-03-30T20:05:07.448Z,103.70
2019-03-30T20:07:52.312Z,106.10
2019-03-30T20:10:36.743Z,102.90
2019-03-30T20:13:21.371Z,108.43
2019-03-30T20:16:05.653Z,106.50
2019-03-30T20:18:50.420Z,106.20
2019-03-30T20:21:35.315Z,102.73
2019-03-30T20:24:19.727Z,104.63
2019-03-30T20:27:04.991Z,99.77
2019-03-30T20:29:49.763Z,95.97
2019-03-30T20:32:34.098Z,97.43
2019-03-30T20:35:18.722Z,103.20
2019-03-30T20:38:03.648Z,104.90
2019-03-30T20:40:48.008Z,106.73
2019-03-30T20:43:32.384Z,100.40
2019-03-30T20:46:18.250Z,99.12
2019-03-30T20:49:02.145Z,96.70
2019-03-30T20:51:45.941Z,100.50
2019-03-30T20:54:30.796Z,99.53
2019-03-30T20:57:15.041Z,99.70
2019-03-30T20:59:59.262Z,105.23
2019-03-30T21:02:43.951Z,102.95
2019-03-30T21:05:28.584Z,101.30
2019-03-30T21:08:12.463Z,96.53
2019-03-30T21:10:56.732Z,96.47
2019-03-30T21:13:41.057Z,97.57
2019-03-30T21:16:25.067Z,95.90
2019-03-30T21:19:09.545Z,89.77
2019-03-30T21:21:54.352Z,94.40
2019-03-30T21:24:38.457Z,91.90
2019-03-30T21:27:20.518Z,93.57
2019-03-30T21:30:05.499Z,88.78
2019-03-30T21:32:52.057Z,89.15
2019-03-30T21:35:36.813Z,97.60
2019-03-30T21:38:21.388Z,92.57
2019-03-30T21:40:54.619Z,92.20
2019-03-30T21:43:39.198Z,91.93
2019-03-30T21:46:12.317Z,87.60
2019-03-30T21:48:56.705Z,88.27
2019-03-30T21:51:40.916Z,95.30
2019-03-30T21:54:25.993Z,89.00
2019-03-30T21:57:10.499Z,90.90
2019-03-30T22:00:08.709Z,91.27
2019-03-30T22:02:41.843Z,85.87
2019-03-30T22:05:26.160Z,90.27
2019-03-30T22:08:10.026Z,92.40
2019-03-30T22:10:53.915Z,90.37
2019-03-30T22:13:38.169Z,88.53
2019-03-30T22:16:22.656Z,88.03
2019-03-30T22:19:07.655Z,82.07
2019-03-30T22:21:52.757Z,85.13
2019-03-30T22:24:37.423Z,84.87
2019-03-30T22:27:21.389Z,85.37
2019-03-30T22:30:05.735Z,85.93
2019-03-30T22:32:50.051Z,85.77
2019-03-30T22:35:34.726Z,83.10
2019-03-30T22:38:20.853Z,77.22
2019-03-30T22:41:05.763Z,82.47
2019-03-30T22:43:49.720Z,81.22
2019-03-30T22:46:37.531Z,82.47
2019-03-30T22:49:33.566Z,79.63
2019-03-30T22:52:20.345Z,79.53
2019-03-30T22:55:03.829Z,79.60
2019-03-30T22:57:48.415Z,75.40
2019-03-30T23:00:52.063Z,85.30
2019-03-30T23:03:36.708Z,80.40
2019-03-30T23:06:21.058Z,79.37
2019-03-30T23:09:06.593Z,83.82
2019-03-30T23:11:50.799Z,75.30
2019-03-30T23:14:24.159Z,79.73
2019-03-30T23:17:08.468Z,83.30
2019-03-30T23:19:52.634Z,84.30
2019-03-30T23:22:37.050Z,76.55
2019-03-30T23:25:21.282Z,76.23
2019-03-30T23:28:05.397Z,74.60
2019-03-30T23:30:54.522Z,78.10
2019-03-30T23:33:37.521Z,83.75
2019-03-30T23:36:23.246Z,79.50
2019-03-30T23:39:08.123Z,73.07
2019-03-30T23:41:53.241Z,79.80
2019-03-30T23:44:37.590Z,77.83
2019-03-30T23:47:22.864Z,78.33
2019-03-30T23:50:06.752Z,77.70
2019-03-30T23:52:51.517Z,72.83
2019-03-30T23:55:36.286Z,77.87
2019-03-30T23:58:21.498Z,78.37
